createdAt,value
2022-09-12T00:01:13.739Z,7.10
2022-09-12T00:03:41.798Z,6.60
2022-09-12T00:06:27.207Z,9.05
2022-09-12T00:08:57.712Z,6.18
2022-09-12T00:11:26.123Z,7.33
2022-09-12T00:13:58.507Z,7.57
2022-09-12T00:16:28.758Z,7.70
2022-09-12T00:18:56.568Z,6.75
2022-09-12T00:21:24.277Z,7.50
2022-09-12T00:23:52.465Z,8.07
2022-09-12T00:26:21.206Z,7.93
2022-09-12T00:28:49.004Z,8.43
2022-09-12T00:31:19.688Z,7.28
2022-09-12T00:33:47.435Z,9.40
2022-09-12T00:36:20.516Z,9.00
2022-09-12T00:38:49.227Z,9.90
2022-09-12T00:41:22.236Z,10.32
2022-09-12T00:44:10.259Z,8.10
2022-09-12T00:46:46.590Z,7.95
2022-09-12T00:49:26.601Z,9.23
2022-09-12T00:52:01.631Z,7.15
2022-09-12T00:54:33.655Z,11.48
2022-09-12T00:57:04.433Z,10.55
2022-09-12T00:59:37.763Z,7.68
2022-09-12T01:02:05.640Z,7.67
2022-09-12T01:04:36.015Z,8.00
2022-09-12T01:07:04.129Z,8.60
2022-09-12T01:09:31.605Z,9.57
2022-09-12T01:12:01.445Z,9.85
2022-09-12T01:14:30.273Z,9.40
2022-09-12T01:16:57.904Z,9.05
2022-09-12T01:19:44.057Z,7.85
2022-09-12T01:22:29.636Z,8.52
2022-09-12T01:25:22.056Z,8.50
2022-09-12T01:28:14.910Z,8.10
2022-09-12T01:30:55.862Z,9.18
2022-09-12T01:33:41.826Z,10.25
2022-09-12T01:36:19.367Z,10.50
2022-09-12T01:38:59.455Z,10.45
2022-09-12T01:41:32.587Z,9.30
2022-09-12T01:44:19.030Z,10.93
2022-09-12T01:46:52.859Z,10.88
2022-09-12T01:49:25.123Z,10.15
2022-09-12T01:51:59.227Z,12.75
2022-09-12T01:54:51.124Z,11.93
2022-09-12T01:57:27.723Z,10.63
2022-09-12T02:00:00.336Z,26.08
2022-09-12T02:02:35.819Z,11.57
2022-09-12T02:05:33.633Z,15.80
2022-09-12T02:08:06.271Z,12.93
2022-09-12T02:10:42.377Z,13.07
2022-09-12T02:13:17.484Z,11.07
2022-09-12T02:15:50.501Z,12.50
2022-09-12T02:18:18.844Z,12.75
2022-09-12T02:20:49.177Z,12.83
2022-09-12T02:23:27.324Z,13.95
2022-09-12T02:25:57.964Z,11.10
2022-09-12T02:28:29.283Z,12.27
2022-09-12T02:31:04.253Z,12.95
2022-09-12T02:34:08.165Z,10.87
2022-09-12T02:36:46.503Z,9.77
2022-09-12T02:39:14.001Z,12.48
2022-09-12T02:41:41.730Z,12.85
2022-09-12T02:44:09.184Z,13.52
2022-09-12T02:46:43.047Z,11.37
2022-09-12T02:49:10.895Z,11.60
2022-09-12T02:51:38.677Z,12.77
2022-09-12T02:54:07.539Z,11.27
2022-09-12T02:56:36.227Z,11.38
2022-09-12T02:59:07.352Z,13.73
2022-09-12T03:01:59.394Z,12.88
2022-09-12T03:04:39.117Z,11.85
2022-09-12T03:07:14.496Z,11.82
2022-09-12T03:10:01.474Z,10.90
2022-09-12T03:12:44.309Z,12.27
2022-09-12T03:15:16.033Z,13.98
2022-09-12T03:18:06.699Z,12.85
2022-09-12T03:20:44.433Z,12.48
2022-09-12T03:23:19.248Z,14.13
2022-09-12T03:25:56.205Z,11.43
2022-09-12T03:28:24.146Z,11.23
2022-09-12T03:30:53.509Z,12.70
2022-09-12T03:33:22.794Z,15.00
2022-09-12T03:35:51.634Z,12.82
2022-09-12T03:38:19.785Z,16.87
2022-09-12T03:40:51.387Z,11.90
2022-09-12T03:43:21.894Z,12.37
2022-09-12T03:45:53.479Z,13.15
2022-09-12T03:48:21.111Z,12.88
2022-09-12T03:50:48.870Z,10.20
2022-09-12T03:53:17.415Z,11.40
2022-09-12T03:55:45.397Z,12.27
2022-09-12T03:58:13.195Z,10.98
2022-09-12T04:00:40.986Z,11.40
2022-09-12T04:03:08.961Z,11.03
2022-09-12T04:05:36.755Z,12.27
2022-09-12T04:08:04.344Z,12.05
2022-09-12T04:10:32.652Z,11.80
2022-09-12T04:13:00.167Z,13.73
2022-09-12T04:15:27.593Z,10.60
2022-09-12T04:17:55.409Z,11.25
2022-09-12T04:20:22.872Z,11.57
2022-09-12T04:22:50.354Z,10.85
2022-09-12T04:25:18.088Z,12.32
2022-09-12T04:27:45.568Z,13.23
2022-09-12T04:30:13.372Z,11.12
2022-09-12T04:32:41.458Z,11.23
2022-09-12T04:35:09.143Z,11.45
2022-09-12T04:37:36.593Z,13.95
2022-09-12T04:40:04.671Z,15.23
2022-09-12T04:42:32.160Z,11.48
2022-09-12T04:44:59.689Z,12.27
2022-09-12T04:47:27.442Z,11.95
2022-09-12T04:49:54.877Z,15.02
2022-09-12T04:52:22.366Z,16.00
2022-09-12T04:54:50.500Z,16.33
2022-09-12T04:57:17.982Z,16.17
2022-09-12T04:59:46.132Z,13.30
2022-09-12T05:02:13.926Z,18.67
2022-09-12T05:04:41.462Z,15.50
2022-09-12T05:07:09.122Z,14.02
2022-09-12T05:09:36.893Z,18.95
2022-09-12T05:12:05.774Z,14.90
2022-09-12T05:14:34.135Z,17.08
2022-09-12T05:17:03.152Z,15.77
2022-09-12T05:19:31.347Z,16.45
2022-09-12T05:21:59.289Z,19.20
2022-09-12T05:24:27.386Z,17.55
2022-09-12T05:26:54.934Z,15.80
2022-09-12T05:29:22.515Z,18.27
2022-09-12T05:31:52.007Z,16.65
2022-09-12T05:34:20.544Z,16.23
2022-09-12T05:36:48.057Z,18.58
2022-09-12T05:39:15.934Z,19.92
2022-09-12T05:41:43.648Z,22.60
2022-09-12T05:44:12.626Z,17.90
2022-09-12T05:46:42.823Z,17.10
2022-09-12T05:49:12.650Z,16.48
2022-09-12T05:51:43.118Z,16.87
2022-09-12T05:54:12.218Z,21.90
2022-09-12T05:56:42.273Z,19.02
2022-09-12T05:59:15.289Z,18.30
2022-09-12T06:01:43.512Z,19.23
2022-09-12T06:04:12.100Z,19.75
2022-09-12T06:06:47.381Z,18.97
2022-09-12T06:09:16.356Z,21.87
2022-09-12T06:11:44.912Z,19.02
2022-09-12T06:14:14.112Z,16.65
2022-09-12T06:16:42.322Z,19.52
2022-09-12T06:19:14.212Z,20.97
2022-09-12T06:21:41.963Z,19.55
2022-09-12T06:24:09.636Z,19.30
2022-09-12T06:26:37.292Z,16.52
2022-09-12T06:29:05.126Z,20.25
2022-09-12T06:31:36.065Z,20.63
2022-09-12T06:34:05.829Z,20.33
2022-09-12T06:36:38.630Z,16.83
2022-09-12T06:39:08.905Z,16.73
2022-09-12T06:41:40.400Z,18.27
2022-09-12T06:44:16.140Z,17.10
2022-09-12T06:46:44.543Z,16.17
2022-09-12T06:49:12.455Z,16.70
2022-09-12T06:51:41.991Z,17.05
2022-09-12T06:54:12.795Z,18.37
2022-09-12T06:56:40.568Z,15.10
2022-09-12T06:59:08.470Z,18.05
2022-09-12T07:01:36.368Z,15.00
2022-09-12T07:04:04.575Z,19.52
2022-09-12T07:06:37.485Z,14.50
2022-09-12T07:09:07.178Z,15.53
2022-09-12T07:11:36.631Z,17.12
2022-09-12T07:14:05.888Z,15.07
2022-09-12T07:16:35.544Z,13.80
2022-09-12T07:19:04.797Z,15.82
2022-09-12T07:21:32.995Z,15.47
2022-09-12T07:24:00.971Z,13.05
2022-09-12T07:26:29.802Z,12.93
2022-09-12T07:29:13.211Z,14.32
2022-09-12T07:31:45.989Z,11.55
2022-09-12T07:34:13.968Z,13.50
2022-09-12T07:36:41.443Z,12.68
2022-09-12T07:39:09.744Z,11.85
2022-09-12T07:41:37.160Z,13.27
2022-09-12T07:44:06.712Z,11.35
2022-09-12T07:46:35.392Z,11.77
2022-09-12T07:49:03.567Z,12.35
2022-09-12T07:51:31.331Z,11.55
2022-09-12T07:53:59.223Z,10.52
2022-09-12T07:56:31.097Z,11.93
2022-09-12T07:59:00.519Z,11.43
2022-09-12T08:01:28.071Z,9.32
2022-09-12T08:03:58.090Z,10.30
2022-09-12T08:06:28.058Z,9.10
2022-09-12T08:08:57.584Z,8.93
2022-09-12T08:11:27.848Z,8.17
2022-09-12T08:13:57.574Z,10.80
2022-09-12T08:16:28.312Z,11.02
2022-09-12T08:18:55.907Z,8.02
2022-09-12T08:21:26.548Z,9.70
2022-09-12T08:24:03.728Z,7.23
2022-09-12T08:26:32.719Z,7.72
2022-09-12T08:29:00.513Z,7.35
2022-09-12T08:31:28.508Z,8.02
2022-09-12T08:33:57.309Z,8.23
2022-09-12T08:36:27.255Z,8.90
2022-09-12T08:39:00.506Z,8.38
2022-09-12T08:41:31.361Z,6.78
2022-09-12T08:44:09.511Z,8.85
2022-09-12T08:47:06.485Z,6.70
2022-09-12T08:49:45.608Z,6.93
2022-09-12T08:52:16.933Z,7.95
2022-09-12T08:54:47.760Z,8.85
2022-09-12T08:57:15.552Z,7.07
2022-09-12T08:59:44.887Z,7.35
2022-09-12T09:02:54.507Z,7.80
2022-09-12T09:05:51.217Z,8.10
2022-09-12T09:08:34.309Z,7.12
2022-09-12T09:11:20.934Z,8.23
2022-09-12T09:14:16.267Z,6.45
2022-09-12T09:16:45.541Z,6.20
2022-09-12T09:19:18.113Z,9.40
2022-09-12T09:21:53.415Z,6.05
2022-09-12T09:24:27.299Z,7.15
2022-09-12T09:27:02.219Z,7.57
2022-09-12T09:29:37.170Z,9.30
2022-09-12T09:32:13.222Z,6.70
2022-09-12T09:34:40.714Z,7.45
2022-09-12T09:37:32.362Z,6.93
2022-09-12T09:40:15.983Z,7.85
2022-09-12T09:43:05.492Z,7.30
2022-09-12T09:45:32.980Z,6.68
2022-09-12T09:48:15.916Z,6.90
2022-09-12T09:50:49.098Z,6.55
2022-09-12T09:53:26.673Z,5.57
2022-09-12T09:55:55.735Z,9.83
2022-09-12T09:58:33.889Z,6.50
2022-09-12T10:01:03.691Z,6.57
2022-09-12T10:03:38.922Z,7.68
2022-09-12T10:06:21.312Z,6.78
2022-09-12T10:08:50.203Z,6.33
2022-09-12T10:11:23.250Z,7.37
2022-09-12T10:13:53.765Z,6.57
2022-09-12T10:16:22.601Z,6.10
2022-09-12T10:18:51.159Z,8.45
2022-09-12T10:21:48.079Z,7.60
2022-09-12T10:24:25.804Z,7.15
2022-09-12T10:27:06.025Z,5.57
2022-09-12T10:29:40.339Z,5.18
2022-09-12T10:32:08.799Z,6.07
2022-09-12T10:34:43.822Z,4.90
2022-09-12T10:37:19.619Z,6.68
2022-09-12T10:39:53.586Z,6.25
2022-09-12T10:42:49.376Z,7.78
2022-09-12T10:45:37.428Z,5.20
2022-09-12T10:48:31.755Z,5.53
2022-09-12T10:51:00.317Z,4.87
2022-09-12T10:53:34.530Z,4.75
2022-09-12T10:56:12.045Z,5.90
2022-09-12T10:58:43.128Z,5.68
2022-09-12T11:01:49.729Z,6.03
2022-09-12T11:04:26.240Z,5.87
2022-09-12T11:07:19.933Z,7.55
2022-09-12T11:10:00.201Z,5.85
2022-09-12T11:12:46.375Z,6.62
2022-09-12T11:15:36.393Z,6.47
2022-09-12T11:18:23.422Z,5.00
2022-09-12T11:21:09.802Z,5.82
2022-09-12T11:24:15.415Z,5.68
2022-09-12T11:27:01.045Z,6.25
2022-09-12T11:29:48.751Z,8.00
2022-09-12T11:33:00.263Z,6.18
2022-09-12T11:35:32.192Z,6.78
2022-09-12T11:38:29.464Z,8.75
2022-09-12T11:41:01.907Z,8.43
2022-09-12T11:43:34.139Z,6.77
2022-09-12T11:46:10.330Z,5.43
2022-09-12T11:48:41.067Z,9.68
2022-09-12T11:51:18.174Z,7.90
2022-09-12T11:53:50.683Z,8.75
2022-09-12T11:56:18.703Z,7.13
2022-09-12T11:58:53.364Z,6.22
2022-09-12T12:01:25.247Z,6.45
2022-09-12T12:03:55.492Z,7.03
2022-09-12T12:06:35.517Z,6.37
2022-09-12T12:09:04.701Z,6.57
2022-09-12T12:11:35.754Z,7.35
2022-09-12T12:14:25.579Z,7.00
2022-09-12T12:16:53.260Z,5.22
2022-09-12T12:19:37.680Z,7.35
2022-09-12T12:22:17.173Z,4.97
2022-09-12T12:24:55.165Z,5.03
2022-09-12T12:27:26.043Z,6.50
2022-09-12T12:29:54.133Z,7.03
2022-09-12T12:32:23.421Z,6.30
2022-09-12T12:34:50.989Z,4.50
2022-09-12T12:37:18.736Z,6.62
2022-09-12T12:39:56.322Z,5.18
2022-09-12T12:42:33.774Z,6.70
2022-09-12T12:45:17.842Z,5.87
2022-09-12T12:47:48.071Z,4.93
2022-09-12T12:50:21.594Z,4.70
2022-09-12T12:52:57.777Z,5.68
2022-09-12T12:55:31.300Z,6.93
2022-09-12T12:58:00.801Z,6.05
2022-09-12T13:00:32.476Z,5.03
2022-09-12T13:03:09.007Z,5.40
2022-09-12T13:05:45.030Z,6.20
2022-09-12T13:08:18.932Z,6.50
2022-09-12T13:10:55.930Z,5.90
2022-09-12T13:13:27.977Z,5.90
2022-09-12T13:15:55.567Z,5.18
2022-09-12T13:18:30.267Z,4.78
2022-09-12T13:21:04.583Z,7.03
2022-09-12T13:23:32.835Z,5.15
2022-09-12T13:26:01.908Z,6.60
2022-09-12T13:28:31.107Z,4.32
2022-09-12T13:31:07.602Z,5.53
2022-09-12T13:33:55.875Z,5.30
2022-09-12T13:36:45.372Z,4.95
2022-09-12T13:39:20.696Z,6.07
2022-09-12T13:42:27.015Z,4.55
2022-09-12T13:45:04.241Z,4.12
2022-09-12T13:47:38.600Z,6.45
2022-09-12T13:50:07.987Z,6.43
2022-09-12T13:52:35.979Z,4.20
2022-09-12T13:55:07.757Z,6.50
2022-09-12T13:57:41.225Z,5.18
2022-09-12T14:00:22.423Z,4.53
2022-09-12T14:03:10.592Z,4.80
2022-09-12T14:05:39.657Z,4.70
2022-09-12T14:08:08.663Z,4.62
2022-09-12T14:10:39.338Z,4.82
2022-09-12T14:13:25.392Z,6.12
2022-09-12T14:15:54.994Z,8.15
2022-09-12T14:18:38.572Z,4.03
2022-09-12T14:21:12.743Z,4.32
2022-09-12T14:23:42.730Z,3.90
2022-09-12T14:26:12.416Z,4.15
2022-09-12T14:28:42.135Z,3.95
2022-09-12T14:31:12.865Z,5.00
2022-09-12T14:33:55.197Z,6.10
2022-09-12T14:36:32.419Z,3.37
2022-09-12T14:39:06.205Z,3.62
2022-09-12T14:41:37.164Z,3.85
2022-09-12T14:44:08.677Z,4.00
2022-09-12T14:46:41.371Z,5.60
2022-09-12T14:49:12.530Z,5.03
2022-09-12T14:52:00.831Z,3.95
2022-09-12T14:54:28.535Z,3.25
2022-09-12T14:57:01.792Z,3.70
2022-09-12T14:59:35.624Z,4.60
2022-09-12T15:02:22.633Z,4.35
2022-09-12T15:04:53.185Z,4.57
2022-09-12T15:07:24.235Z,3.10
2022-09-12T15:09:52.411Z,5.00
2022-09-12T15:12:19.816Z,3.40
2022-09-12T15:14:47.329Z,4.93
2022-09-12T15:17:15.035Z,5.28
2022-09-12T15:19:42.633Z,3.53
2022-09-12T15:22:13.493Z,5.63
2022-09-12T15:24:41.265Z,2.60
2022-09-12T15:27:11.595Z,4.43
2022-09-12T15:29:39.349Z,4.32
2022-09-12T15:32:15.000Z,6.15
2022-09-12T15:34:42.536Z,6.67
2022-09-12T15:37:12.948Z,3.97
2022-09-12T15:39:41.070Z,7.43
2022-09-12T15:42:09.912Z,5.00
2022-09-12T15:44:38.014Z,3.12
2022-09-12T15:47:05.781Z,3.00
2022-09-12T15:49:33.502Z,3.05
2022-09-12T15:52:01.356Z,3.55
2022-09-12T15:54:29.014Z,3.37
2022-09-12T15:56:56.602Z,4.87
2022-09-12T15:59:24.367Z,4.90
2022-09-12T16:01:51.948Z,4.28
2022-09-12T16:04:21.316Z,3.33
2022-09-12T16:06:49.760Z,4.80
2022-09-12T16:09:17.696Z,4.15
2022-09-12T16:11:46.006Z,2.57
2022-09-12T16:14:18.160Z,4.43
2022-09-12T16:16:52.222Z,2.83
2022-09-12T16:19:19.873Z,3.42
2022-09-12T16:21:47.611Z,3.30
2022-09-12T16:24:15.573Z,4.40
2022-09-12T16:26:43.164Z,3.87
2022-09-12T16:29:13.602Z,2.85
2022-09-12T16:31:41.163Z,3.12
2022-09-12T16:34:08.617Z,4.75
2022-09-12T16:36:36.379Z,3.43
2022-09-12T16:39:03.930Z,3.60
2022-09-12T16:41:31.541Z,4.18
2022-09-12T16:43:59.411Z,2.65
2022-09-12T16:46:30.440Z,4.00
2022-09-12T16:48:58.786Z,4.50
2022-09-12T16:51:30.294Z,3.67
2022-09-12T16:53:58.030Z,3.75
2022-09-12T16:56:25.856Z,5.87
2022-09-12T16:58:53.593Z,4.10
2022-09-12T17:01:23.369Z,3.17
2022-09-12T17:03:58.659Z,5.03
2022-09-12T17:06:26.825Z,3.97
2022-09-12T17:08:57.974Z,3.90
2022-09-12T17:11:33.561Z,5.25
2022-09-12T17:14:06.091Z,3.00
2022-09-12T17:16:37.292Z,3.42
2022-09-12T17:19:06.044Z,3.75
2022-09-12T17:21:34.280Z,6.22
2022-09-12T17:24:02.084Z,4.53
2022-09-12T17:26:30.034Z,4.57
2022-09-12T17:28:57.783Z,5.72
2022-09-12T17:31:25.425Z,2.97
2022-09-12T17:34:01.017Z,2.67
2022-09-12T17:36:29.363Z,5.20
2022-09-12T17:38:57.172Z,4.93
2022-09-12T17:41:27.314Z,3.00
2022-09-12T17:43:57.416Z,3.22
2022-09-12T17:46:29.746Z,4.05
2022-09-12T17:48:57.924Z,3.62
2022-09-12T17:51:26.740Z,5.10
2022-09-12T17:53:59.174Z,5.12
2022-09-12T17:56:29.188Z,4.05
2022-09-12T17:58:58.540Z,4.65
2022-09-12T18:01:45.937Z,3.65
2022-09-12T18:04:14.127Z,2.90
2022-09-12T18:06:47.781Z,3.95
2022-09-12T18:09:27.975Z,2.90
2022-09-12T18:11:55.891Z,3.03
2022-09-12T18:14:24.748Z,5.07
2022-09-12T18:16:52.464Z,4.83
2022-09-12T18:19:20.164Z,4.25
2022-09-12T18:21:47.981Z,3.47
2022-09-12T18:24:15.795Z,3.58
2022-09-12T18:26:46.205Z,4.72
2022-09-12T18:29:17.365Z,3.33
2022-09-12T18:31:46.036Z,5.05
2022-09-12T18:34:14.292Z,7.95
2022-09-12T18:36:43.217Z,3.55
2022-09-12T18:39:11.640Z,3.67
2022-09-12T18:41:39.774Z,3.73
2022-09-12T18:44:07.628Z,4.97
2022-09-12T18:46:35.545Z,5.22
2022-09-12T18:49:04.605Z,5.72
2022-09-12T18:51:34.908Z,3.28
2022-09-12T18:54:06.354Z,2.97
2022-09-12T18:56:37.531Z,4.80
2022-09-12T18:59:06.951Z,4.05
2022-09-12T19:01:36.636Z,4.62
2022-09-12T19:04:04.982Z,3.87
2022-09-12T19:06:35.848Z,6.50
2022-09-12T19:09:07.628Z,6.10
2022-09-12T19:11:38.393Z,4.90
2022-09-12T19:14:06.734Z,5.05
2022-09-12T19:16:35.147Z,3.65
2022-09-12T19:19:03.772Z,3.73
2022-09-12T19:21:32.911Z,4.30
2022-09-12T19:24:06.108Z,4.72
2022-09-12T19:26:34.354Z,6.70
2022-09-12T19:29:03.040Z,5.35
2022-09-12T19:31:31.914Z,4.17
2022-09-12T19:34:04.561Z,5.30
2022-09-12T19:36:47.858Z,4.18
2022-09-12T19:39:16.905Z,6.10
2022-09-12T19:41:44.825Z,4.87
2022-09-12T19:44:12.752Z,4.50
2022-09-12T19:46:40.678Z,4.70
2022-09-12T19:49:09.975Z,4.55
2022-09-12T19:51:37.721Z,4.70
2022-09-12T19:54:06.209Z,4.32
2022-09-12T19:56:33.729Z,4.30
2022-09-12T19:59:05.311Z,5.00
2022-09-12T20:01:33.280Z,4.07
2022-09-12T20:04:01.391Z,4.32
2022-09-12T20:06:28.885Z,3.95
2022-09-12T20:08:56.418Z,4.67
2022-09-12T20:11:24.415Z,4.72
2022-09-12T20:13:52.714Z,6.18
2022-09-12T20:16:22.589Z,5.78
2022-09-12T20:18:59.652Z,6.03
2022-09-12T20:21:31.650Z,5.10
2022-09-12T20:24:05.660Z,5.30
2022-09-12T20:26:33.541Z,3.58
2022-09-12T20:29:01.964Z,4.53
2022-09-12T20:31:30.248Z,5.65
2022-09-12T20:33:58.201Z,4.63
2022-09-12T20:36:26.016Z,4.20
2022-09-12T20:38:58.551Z,4.75
2022-09-12T20:41:28.037Z,7.28
2022-09-12T20:43:56.621Z,6.37
2022-09-12T20:46:25.081Z,5.23
2022-09-12T20:48:53.121Z,5.37
2022-09-12T20:51:26.497Z,6.72
2022-09-12T20:53:54.561Z,6.00
2022-09-12T20:56:22.954Z,7.45
2022-09-12T20:58:50.830Z,7.30
2022-09-12T21:01:18.841Z,4.22
2022-09-12T21:03:47.009Z,5.50
2022-09-12T21:06:18.409Z,5.78
2022-09-12T21:08:47.525Z,7.93
2022-09-12T21:11:15.412Z,4.63
2022-09-12T21:13:42.965Z,5.12
2022-09-12T21:16:13.097Z,5.87
2022-09-12T21:18:47.011Z,4.45
2022-09-12T21:21:15.770Z,7.15
2022-09-12T21:23:46.605Z,6.30
2022-09-12T21:26:14.049Z,5.87
2022-09-12T21:28:41.842Z,4.82
2022-09-12T21:31:09.463Z,6.18
2022-09-12T21:33:37.127Z,5.65
2022-09-12T21:36:06.067Z,4.27
2022-09-12T21:38:34.229Z,6.40
2022-09-12T21:41:09.226Z,5.75
2022-09-12T21:43:37.616Z,5.25
2022-09-12T21:46:05.853Z,6.93
2022-09-12T21:48:33.971Z,5.23
2022-09-12T21:51:01.833Z,4.43
2022-09-12T21:53:29.322Z,3.85
2022-09-12T21:56:01.908Z,5.30
2022-09-12T21:58:29.846Z,6.47
2022-09-12T22:00:57.397Z,4.37
2022-09-12T22:03:26.038Z,4.50
2022-09-12T22:06:00.484Z,7.37
2022-09-12T22:08:29.617Z,5.25
2022-09-12T22:11:02.067Z,6.10
2022-09-12T22:13:33.707Z,5.70
2022-09-12T22:16:03.001Z,4.57
2022-09-12T22:18:35.954Z,6.35
2022-09-12T22:21:04.790Z,5.70
2022-09-12T22:23:51.011Z,5.45
2022-09-12T22:26:18.613Z,4.40
2022-09-12T22:28:49.197Z,5.65
2022-09-12T22:31:17.282Z,6.00
2022-09-12T22:33:45.675Z,5.75
2022-09-12T22:36:13.736Z,5.87
2022-09-12T22:38:41.191Z,5.93
2022-09-12T22:41:11.292Z,5.62
2022-09-12T22:43:39.347Z,6.87
2022-09-12T22:46:08.369Z,5.03
2022-09-12T22:48:37.779Z,5.93
2022-09-12T22:51:05.802Z,6.50
2022-09-12T22:53:33.505Z,6.00
2022-09-12T22:56:01.197Z,6.05
2022-09-12T22:58:28.988Z,7.03
2022-09-12T23:00:56.576Z,5.50
2022-09-12T23:03:24.289Z,5.27
2022-09-12T23:05:52.411Z,5.70
2022-09-12T23:08:19.855Z,5.07
2022-09-12T23:10:47.264Z,5.20
2022-09-12T23:13:15.084Z,5.10
2022-09-12T23:15:42.517Z,4.63
2022-09-12T23:18:09.968Z,4.95
2022-09-12T23:20:37.756Z,6.12
2022-09-12T23:23:05.240Z,5.00
2022-09-12T23:25:33.081Z,4.85
2022-09-12T23:28:00.989Z,4.57
2022-09-12T23:30:28.592Z,4.40
2022-09-12T23:32:56.326Z,5.28
2022-09-12T23:35:24.071Z,5.93
2022-09-12T23:37:51.591Z,4.93
2022-09-12T23:40:19.245Z,5.70
2022-09-12T23:42:47.050Z,6.85
2022-09-12T23:45:14.535Z,6.25
2022-09-12T23:47:42.068Z,7.18
2022-09-12T23:50:09.918Z,4.65
2022-09-12T23:52:37.325Z,3.93
2022-09-12T23:55:05.156Z,4.95
2022-09-12T23:57:32.960Z,5.20
